createdAt,value
2019-06-10T00:00:42.120Z,20.50
2019-06-10T00:02:21.270Z,19.90
2019-06-10T00:03:57.965Z,19.90
2019-06-10T00:05:35.459Z,19.90
2019-06-10T00:08:56.032Z,19.90
2019-06-10T00:10:33.523Z,19.90
2019-06-10T00:12:12.552Z,19.80
2019-06-10T00:13:50.739Z,19.80
2019-06-10T00:15:27.965Z,19.80
2019-06-10T00:17:06.721Z,19.70
2019-06-10T00:18:45.747Z,19.70
2019-06-10T00:20:22.619Z,19.70
2019-06-10T00:21:59.915Z,19.70
2019-06-10T00:23:38.220Z,19.60
2019-06-10T00:25:14.958Z,19.60
2019-06-10T00:26:52.347Z,19.60
2019-06-10T00:28:30.984Z,19.70
2019-06-10T00:30:10.064Z,19.60
2019-06-10T00:31:47.427Z,19.60
2019-06-10T00:33:24.590Z,19.60
2019-06-10T00:35:03.161Z,19.50
2019-06-10T00:36:41.347Z,19.50
2019-06-10T00:38:17.987Z,19.40
2019-06-10T00:39:55.415Z,19.30
2019-06-10T00:41:31.934Z,19.30
2019-06-10T00:43:12.984Z,19.30
2019-06-10T00:44:47.445Z,19.20
2019-06-10T00:46:24.829Z,19.20
2019-06-10T00:48:13.488Z,19.20
2019-06-10T00:49:41.057Z,19.20
2019-06-10T00:51:17.651Z,19.20
2019-06-10T00:52:54.991Z,19.10
2019-06-10T00:54:31.728Z,19.10
2019-06-10T00:56:12.543Z,19.10
2019-06-10T00:57:47.375Z,19.10
2019-06-10T00:59:24.534Z,19.00
2019-06-10T01:01:04.253Z,18.90
2019-06-10T01:02:41.738Z,18.90
2019-06-10T01:04:18.486Z,18.80
2019-06-10T01:05:55.776Z,18.70
2019-06-10T01:07:32.321Z,18.70
2019-06-10T01:09:13.194Z,18.60
2019-06-10T01:10:51.978Z,18.50
2019-06-10T01:12:28.475Z,18.50
2019-06-10T01:14:05.476Z,18.40
2019-06-10T01:15:43.355Z,18.40
2019-06-10T01:17:21.345Z,18.40
2019-06-10T01:19:01.279Z,18.40
2019-06-10T01:20:37.181Z,18.30
2019-06-10T01:22:15.906Z,18.30
2019-06-10T01:23:52.716Z,18.20
2019-06-10T01:25:31.106Z,18.10
2019-06-10T01:27:07.747Z,18.10
2019-06-10T01:28:45.159Z,18.10
2019-06-10T01:30:26.371Z,18.10
2019-06-10T01:32:01.744Z,18.00
2019-06-10T01:33:38.455Z,18.00
2019-06-10T01:35:17.416Z,18.10
2019-06-10T01:36:53.983Z,18.10
2019-06-10T01:38:31.755Z,18.10
2019-06-10T01:40:12.899Z,18.00
2019-06-10T01:41:47.949Z,18.00
2019-06-10T01:43:24.446Z,18.00
2019-06-10T01:45:01.800Z,18.00
2019-06-10T01:46:40.914Z,18.00
2019-06-10T01:48:17.928Z,18.00
2019-06-10T01:49:54.342Z,18.00
2019-06-10T01:51:31.820Z,17.90
2019-06-10T01:53:31.194Z,17.90
2019-06-10T01:55:13.517Z,17.90
2019-06-10T01:56:51.081Z,17.70
2019-06-10T01:58:27.799Z,17.90
2019-06-10T02:00:10.974Z,17.90
2019-06-10T02:01:49.051Z,17.90
2019-06-10T02:03:26.331Z,17.90
2019-06-10T02:05:02.987Z,17.90
2019-06-10T02:06:40.644Z,17.90
2019-06-10T02:08:17.839Z,17.80
2019-06-10T02:09:56.221Z,17.70
2019-06-10T02:11:33.053Z,17.60
2019-06-10T02:13:12.084Z,17.70
2019-06-10T02:14:50.936Z,17.70
2019-06-10T02:16:27.338Z,17.70
2019-06-10T02:18:04.766Z,17.70
2019-06-10T02:19:41.521Z,17.70
2019-06-10T02:21:22.150Z,17.80
2019-06-10T02:22:57.019Z,17.80
2019-06-10T02:24:34.266Z,17.70
2019-06-10T02:26:11.844Z,17.70
2019-06-10T02:27:50.734Z,17.70
2019-06-10T02:29:27.425Z,17.80
2019-06-10T02:31:04.748Z,17.80
2019-06-10T02:32:42.760Z,17.70
2019-06-10T02:34:26.875Z,17.80
2019-06-10T02:35:58.830Z,17.80
2019-06-10T02:37:38.107Z,17.70
2019-06-10T02:39:20.152Z,17.80
2019-06-10T02:40:54.007Z,17.80
2019-06-10T02:42:35.841Z,17.80
2019-06-10T02:44:17.183Z,17.80
2019-06-10T02:45:52.905Z,17.80
2019-06-10T02:47:33.622Z,17.80
2019-06-10T02:49:23.344Z,17.90
2019-06-10T02:50:56.859Z,17.90
2019-06-10T02:52:38.385Z,17.90
2019-06-10T02:54:15.544Z,17.90
2019-06-10T02:55:53.888Z,17.80
2019-06-10T02:57:36.554Z,17.90
2019-06-10T02:59:10.293Z,17.90
2019-06-10T03:00:49.110Z,17.90
2019-06-10T03:02:31.925Z,18.00
2019-06-10T03:04:05.611Z,18.00
2019-06-10T03:05:46.614Z,18.00
2019-06-10T03:07:26.179Z,18.00
2019-06-10T03:09:03.432Z,18.00
2019-06-10T03:10:38.535Z,18.00
2019-06-10T03:12:17.649Z,18.00
2019-06-10T03:13:54.298Z,18.10
2019-06-10T03:15:32.709Z,18.10
2019-06-10T03:17:13.939Z,18.20
2019-06-10T03:18:52.554Z,18.30
2019-06-10T03:20:29.144Z,18.20
2019-06-10T03:22:06.637Z,18.30
2019-06-10T03:23:43.114Z,18.20
2019-06-10T03:25:22.996Z,18.30
2019-06-10T03:26:58.845Z,18.30
2019-06-10T03:28:36.237Z,18.30
2019-06-10T03:30:16.922Z,18.40
2019-06-10T03:31:55.302Z,18.40
2019-06-10T03:33:39.910Z,18.40
2019-06-10T03:35:12.952Z,18.50
2019-06-10T03:36:48.035Z,18.70
2019-06-10T03:38:26.976Z,18.70
2019-06-10T03:40:05.479Z,18.70
2019-06-10T03:41:42.771Z,18.80
2019-06-10T03:43:20.768Z,18.80
2019-06-10T03:44:58.905Z,18.80
2019-06-10T03:46:35.543Z,19.10
2019-06-10T03:48:13.145Z,19.10
2019-06-10T03:49:52.884Z,19.30
2019-06-10T03:51:28.822Z,19.30
2019-06-10T03:53:05.463Z,19.20
2019-06-10T03:54:43.334Z,19.30
2019-06-10T03:56:23.562Z,19.20
2019-06-10T03:57:59.297Z,19.20
2019-06-10T03:59:35.756Z,19.20
2019-06-10T04:01:13.264Z,19.10
2019-06-10T04:02:49.747Z,19.10
2019-06-10T04:04:28.269Z,19.00
2019-06-10T04:06:05.085Z,19.00
2019-06-10T04:07:42.901Z,19.00
2019-06-10T04:09:19.554Z,19.30
2019-06-10T04:10:56.403Z,19.40
2019-06-10T04:12:32.944Z,19.60
2019-06-10T04:14:10.213Z,19.90
2019-06-10T04:15:46.747Z,19.90
2019-06-10T04:17:25.318Z,20.00
2019-06-10T04:19:02.649Z,20.20
2019-06-10T04:20:42.677Z,20.30
2019-06-10T04:22:19.614Z,20.40
2019-06-10T04:23:57.332Z,20.50
2019-06-10T04:25:34.000Z,20.60
2019-06-10T04:27:12.267Z,20.70
2019-06-10T04:28:48.851Z,20.60
2019-06-10T04:30:27.593Z,20.90
2019-06-10T04:32:04.838Z,20.90
2019-06-10T04:33:42.336Z,21.00
2019-06-10T04:35:20.293Z,21.00
2019-06-10T04:36:57.970Z,21.10
2019-06-10T04:38:35.002Z,20.80
2019-06-10T04:40:13.407Z,20.80
2019-06-10T04:41:50.037Z,20.90
2019-06-10T04:43:27.748Z,20.90
2019-06-10T04:45:06.410Z,21.00
2019-06-10T04:46:43.732Z,21.10
2019-06-10T04:48:21.219Z,21.10
2019-06-10T04:49:59.147Z,21.20
2019-06-10T04:51:36.252Z,21.30
2019-06-10T04:53:13.678Z,21.20
2019-06-10T04:54:52.607Z,21.20
2019-06-10T04:56:31.203Z,21.40
2019-06-10T04:58:07.643Z,21.50
2019-06-10T04:59:44.884Z,21.40
2019-06-10T05:01:24.127Z,21.40
2019-06-10T05:03:02.738Z,21.50
2019-06-10T05:04:38.858Z,21.50
2019-06-10T05:06:17.176Z,21.50
2019-06-10T05:07:53.711Z,21.30
2019-06-10T05:09:33.592Z,21.80
2019-06-10T05:11:09.945Z,21.70
2019-06-10T05:12:48.188Z,21.70
2019-06-10T05:14:25.719Z,21.70
2019-06-10T05:16:05.067Z,21.80
2019-06-10T05:17:43.689Z,21.90
2019-06-10T05:19:23.187Z,22.10
2019-06-10T05:20:58.959Z,22.20
2019-06-10T05:22:36.494Z,22.30
2019-06-10T05:24:13.100Z,22.10
2019-06-10T05:25:52.651Z,22.20
2019-06-10T05:27:30.815Z,22.20
2019-06-10T05:29:08.429Z,22.40
2019-06-10T05:30:44.905Z,22.30
2019-06-10T05:32:23.208Z,22.40
2019-06-10T05:34:02.395Z,22.50
2019-06-10T05:35:39.551Z,22.40
2019-06-10T05:37:16.092Z,22.10
2019-06-10T05:38:53.411Z,22.20
2019-06-10T05:40:29.959Z,22.50
2019-06-10T05:42:07.556Z,22.50
2019-06-10T05:43:44.195Z,22.60
2019-06-10T05:45:24.487Z,22.80
2019-06-10T05:47:00.199Z,22.90
2019-06-10T05:48:37.514Z,22.90
2019-06-10T05:50:14.459Z,23.20
2019-06-10T05:51:52.760Z,23.00
2019-06-10T05:53:33.697Z,23.10
2019-06-10T05:55:09.423Z,22.70
2019-06-10T05:56:45.910Z,22.90
2019-06-10T05:58:24.743Z,23.00
2019-06-10T06:00:10.780Z,23.10
2019-06-10T06:01:43.238Z,23.40
2019-06-10T06:03:19.897Z,23.30
2019-06-10T06:04:57.660Z,23.60
2019-06-10T06:06:35.388Z,23.60
2019-06-10T06:08:12.940Z,23.50
2019-06-10T06:09:49.578Z,23.70
2019-06-10T06:11:27.757Z,23.40
2019-06-10T06:13:04.387Z,23.10
2019-06-10T06:14:42.563Z,23.60
2019-06-10T06:16:19.251Z,23.40
2019-06-10T06:18:09.238Z,23.60
2019-06-10T06:19:37.302Z,23.60
2019-06-10T06:21:25.323Z,23.70
2019-06-10T06:22:52.436Z,23.80
2019-06-10T06:24:29.812Z,23.60
2019-06-10T06:26:05.830Z,23.90
2019-06-10T06:27:43.269Z,24.30
2019-06-10T06:29:22.264Z,24.10
2019-06-10T06:30:59.762Z,23.90
2019-06-10T06:32:37.840Z,24.10
2019-06-10T06:34:15.363Z,24.10
2019-06-10T06:35:52.526Z,23.90
2019-06-10T06:37:35.294Z,24.10
2019-06-10T06:39:09.309Z,24.70
2019-06-10T06:40:47.364Z,24.60
2019-06-10T06:42:23.901Z,24.60
2019-06-10T06:44:02.358Z,24.30
2019-06-10T06:45:39.118Z,24.80
2019-06-10T06:47:16.577Z,24.60
2019-06-10T06:48:53.479Z,24.80
2019-06-10T06:50:34.340Z,24.80
2019-06-10T06:52:09.337Z,25.20
2019-06-10T06:53:51.951Z,25.20
2019-06-10T06:55:25.851Z,24.90
2019-06-10T06:57:03.647Z,24.80
2019-06-10T06:58:43.019Z,24.80
2019-06-10T07:00:38.244Z,25.00
2019-06-10T07:01:58.027Z,25.00
2019-06-10T07:03:38.243Z,24.90
2019-06-10T07:05:14.755Z,25.00
2019-06-10T07:06:55.478Z,25.20
2019-06-10T07:08:36.105Z,25.20
2019-06-10T07:10:13.371Z,25.20
2019-06-10T07:11:52.870Z,24.90
2019-06-10T07:13:33.990Z,25.30
2019-06-10T07:15:12.151Z,25.30
2019-06-10T07:16:49.643Z,25.40
2019-06-10T07:18:26.156Z,25.70
2019-06-10T07:20:03.452Z,25.50
2019-06-10T07:21:58.198Z,25.20
2019-06-10T07:23:19.051Z,25.40
2019-06-10T07:24:55.588Z,25.40
2019-06-10T07:26:36.116Z,25.80
2019-06-10T07:28:12.560Z,25.80
2019-06-10T07:29:52.753Z,25.90
2019-06-10T07:31:29.125Z,25.80
2019-06-10T07:33:06.555Z,25.70
2019-06-10T07:34:46.820Z,25.90
2019-06-10T07:36:23.563Z,25.70
2019-06-10T07:38:02.977Z,25.90
2019-06-10T07:39:41.710Z,25.80
2019-06-10T07:41:18.536Z,25.80
2019-06-10T07:42:57.672Z,25.40
2019-06-10T07:44:34.886Z,25.40
2019-06-10T07:46:13.630Z,25.20
2019-06-10T07:47:52.292Z,25.90
2019-06-10T07:49:32.160Z,26.20
2019-06-10T07:51:08.314Z,26.30
2019-06-10T07:52:46.877Z,25.90
2019-06-10T07:54:23.984Z,26.20
2019-06-10T07:56:03.213Z,26.50
2019-06-10T07:57:39.707Z,26.10
2019-06-10T07:59:17.165Z,26.10
2019-06-10T08:00:54.620Z,26.30
2019-06-10T08:02:34.039Z,26.40
2019-06-10T08:04:12.045Z,26.50
2019-06-10T08:05:52.078Z,26.50
2019-06-10T08:07:27.859Z,26.60
2019-06-10T08:09:06.540Z,26.40
2019-06-10T08:10:46.074Z,26.20
2019-06-10T08:12:23.260Z,26.30
2019-06-10T08:14:04.374Z,26.50
2019-06-10T08:15:39.746Z,26.50
2019-06-10T08:17:16.559Z,26.60
2019-06-10T08:19:20.121Z,26.90
2019-06-10T08:20:47.999Z,26.90
2019-06-10T08:22:33.534Z,27.00
2019-06-10T08:24:04.227Z,27.00
2019-06-10T08:25:45.368Z,27.40
2019-06-10T08:27:22.725Z,27.20
2019-06-10T08:28:59.914Z,27.20
2019-06-10T08:30:37.639Z,27.40
2019-06-10T08:32:15.183Z,27.00
2019-06-10T08:33:53.359Z,27.50
2019-06-10T08:35:39.412Z,27.30
2019-06-10T08:37:09.452Z,27.40
2019-06-10T08:38:48.739Z,27.70
2019-06-10T08:40:25.231Z,27.30
2019-06-10T08:42:03.134Z,27.60
2019-06-10T08:43:41.342Z,27.40
2019-06-10T08:45:19.040Z,27.00
2019-06-10T08:46:55.587Z,27.10
2019-06-10T08:48:33.199Z,27.10
2019-06-10T08:50:09.901Z,27.10
2019-06-10T08:51:50.038Z,27.60
2019-06-10T08:53:25.534Z,27.40
2019-06-10T08:55:03.512Z,27.20
2019-06-10T08:56:42.506Z,27.60
2019-06-10T08:58:19.401Z,27.90
2019-06-10T08:59:56.844Z,27.80
2019-06-10T09:01:34.252Z,27.90
2019-06-10T09:03:12.639Z,28.30
2019-06-10T09:04:53.301Z,28.00
2019-06-10T09:06:28.457Z,28.10
2019-06-10T09:08:08.056Z,28.00
2019-06-10T09:09:47.209Z,27.80
2019-06-10T09:11:24.007Z,27.80
2019-06-10T09:13:02.827Z,27.60
2019-06-10T09:14:41.031Z,27.40
2019-06-10T09:16:19.509Z,27.50
2019-06-10T09:17:57.049Z,28.10
2019-06-10T09:19:33.703Z,28.10
2019-06-10T09:21:12.830Z,28.20
2019-06-10T09:23:08.150Z,28.00
2019-06-10T09:24:28.506Z,27.90
2019-06-10T09:26:05.528Z,28.00
2019-06-10T09:27:46.625Z,28.00
2019-06-10T09:29:22.311Z,28.00
2019-06-10T09:31:03.648Z,28.30
2019-06-10T09:32:39.862Z,28.30
2019-06-10T09:34:18.366Z,28.00
2019-06-10T09:35:55.174Z,27.90
2019-06-10T09:37:32.622Z,28.40
2019-06-10T09:39:09.205Z,28.30
2019-06-10T09:41:00.213Z,28.00
2019-06-10T09:42:33.332Z,28.30
2019-06-10T09:44:12.618Z,28.30
2019-06-10T09:45:51.363Z,28.30
2019-06-10T09:47:28.562Z,28.80
2019-06-10T09:49:07.556Z,29.00
2019-06-10T09:50:50.445Z,29.00
2019-06-10T09:52:24.159Z,28.80
2019-06-10T09:54:05.719Z,29.00
2019-06-10T09:55:41.638Z,28.80
2019-06-10T09:57:18.228Z,28.80
2019-06-10T09:58:55.628Z,28.70
2019-06-10T10:00:57.741Z,28.60
2019-06-10T10:02:33.462Z,28.50
2019-06-10T10:04:12.272Z,28.80
2019-06-10T10:05:59.672Z,28.80
2019-06-10T10:07:28.706Z,28.90
2019-06-10T10:09:08.400Z,28.70
2019-06-10T10:10:49.477Z,28.70
2019-06-10T10:12:24.662Z,28.30
2019-06-10T10:14:06.338Z,28.20
2019-06-10T10:15:41.855Z,28.40
2019-06-10T10:17:18.688Z,28.70
2019-06-10T10:19:00.337Z,28.90
2019-06-10T10:20:34.931Z,29.20
2019-06-10T10:22:14.057Z,29.20
2019-06-10T10:24:04.353Z,29.20
2019-06-10T10:25:33.275Z,29.50
2019-06-10T10:27:11.020Z,29.60
2019-06-10T10:28:51.824Z,29.40
2019-06-10T10:30:28.400Z,30.00
2019-06-10T10:32:08.194Z,29.80
2019-06-10T10:33:44.750Z,29.10
2019-06-10T10:35:24.254Z,29.60
2019-06-10T10:37:02.926Z,29.40
2019-06-10T10:38:40.321Z,29.70
2019-06-10T10:40:17.744Z,29.40
2019-06-10T10:41:57.257Z,29.70
2019-06-10T10:43:37.617Z,29.90
2019-06-10T10:45:14.337Z,30.30
2019-06-10T10:46:53.749Z,30.00
2019-06-10T10:48:33.215Z,29.80
2019-06-10T10:50:13.646Z,29.80
2019-06-10T10:51:49.667Z,29.70
2019-06-10T10:53:26.138Z,29.50
2019-06-10T10:55:06.547Z,29.30
2019-06-10T10:56:43.603Z,29.50
2019-06-10T10:58:22.528Z,29.30
2019-06-10T10:59:59.129Z,29.30
2019-06-10T11:01:37.032Z,29.70
2019-06-10T11:03:13.749Z,29.80
2019-06-10T11:04:55.189Z,29.30
2019-06-10T11:06:32.157Z,29.50
2019-06-10T11:08:13.599Z,29.60
2019-06-10T11:09:50.237Z,29.00
2019-06-10T11:11:30.145Z,29.20
2019-06-10T11:13:10.761Z,28.60
2019-06-10T11:14:49.242Z,28.40
2019-06-10T11:16:25.882Z,28.60
2019-06-10T11:18:04.071Z,28.10
2019-06-10T11:19:40.611Z,28.40
2019-06-10T11:21:18.144Z,28.70
2019-06-10T11:22:54.801Z,29.20
2019-06-10T11:24:37.798Z,29.60
2019-06-10T11:26:12.483Z,29.80
2019-06-10T11:27:50.639Z,29.80
2019-06-10T11:29:28.094Z,29.80
2019-06-10T11:31:06.168Z,29.80
2019-06-10T11:32:43.254Z,29.70
2019-06-10T11:34:20.965Z,29.70
2019-06-10T11:35:59.356Z,29.80
2019-06-10T11:37:36.966Z,29.80
2019-06-10T11:39:13.566Z,29.70
2019-06-10T11:40:57.684Z,29.70
2019-06-10T11:42:33.466Z,29.60
2019-06-10T11:44:10.682Z,29.30
2019-06-10T11:45:52.360Z,29.20
2019-06-10T11:47:26.484Z,29.20
2019-06-10T11:49:04.011Z,29.30
2019-06-10T11:50:42.814Z,29.40
2019-06-10T11:52:19.653Z,29.50
2019-06-10T11:53:58.666Z,29.40
2019-06-10T11:55:35.475Z,29.30
2019-06-10T11:57:13.254Z,29.20
2019-06-10T11:58:50.081Z,28.90
2019-06-10T12:00:28.794Z,29.00
2019-06-10T12:02:06.048Z,29.20
2019-06-10T12:03:43.698Z,29.20
2019-06-10T12:05:23.522Z,29.60
2019-06-10T12:07:02.364Z,29.30
2019-06-10T12:08:39.137Z,29.20
2019-06-10T12:10:17.429Z,29.30
2019-06-10T12:11:58.100Z,29.60
2019-06-10T12:13:34.628Z,29.70
2019-06-10T12:15:12.416Z,29.80
2019-06-10T12:18:27.848Z,29.70
2019-06-10T12:20:13.228Z,29.90
2019-06-10T12:21:55.654Z,30.00
2019-06-10T12:23:28.975Z,29.70
2019-06-10T12:25:30.451Z,29.90
2019-06-10T12:26:47.659Z,29.70
2019-06-10T12:28:24.997Z,29.90
2019-06-10T12:30:04.868Z,29.50
2019-06-10T12:31:42.795Z,29.60
2019-06-10T12:33:24.220Z,29.80
2019-06-10T12:34:59.759Z,29.80
2019-06-10T12:36:36.896Z,29.60
2019-06-10T12:38:14.291Z,29.60
2019-06-10T12:39:54.997Z,29.60
2019-06-10T12:41:30.444Z,29.30
2019-06-10T12:43:07.656Z,29.40
2019-06-10T12:44:45.822Z,29.40
2019-06-10T12:46:23.190Z,29.70
2019-06-10T12:48:06.329Z,30.00
2019-06-10T12:49:42.570Z,29.90
2019-06-10T12:51:19.468Z,30.20
2019-06-10T12:52:56.509Z,30.10
2019-06-10T12:54:35.568Z,30.10
2019-06-10T12:56:15.055Z,29.80
2019-06-10T12:57:52.244Z,29.60
2019-06-10T12:59:29.590Z,29.60
2019-06-10T13:01:08.020Z,29.50
2019-06-10T13:02:45.519Z,29.60
2019-06-10T13:04:23.104Z,29.70
2019-06-10T13:06:07.225Z,29.80
2019-06-10T13:07:43.755Z,30.10
2019-06-10T13:09:23.577Z,30.00
2019-06-10T13:10:59.850Z,30.10
2019-06-10T13:12:37.405Z,30.00
2019-06-10T13:14:14.040Z,29.90
2019-06-10T13:15:53.210Z,29.90
2019-06-10T13:17:29.615Z,29.80
2019-06-10T13:19:08.024Z,29.80
2019-06-10T13:20:45.330Z,29.60
2019-06-10T13:22:23.131Z,29.80
2019-06-10T13:24:02.545Z,29.70
2019-06-10T13:25:53.128Z,30.40
2019-06-10T13:27:17.572Z,30.20
2019-06-10T13:28:54.320Z,30.10
2019-06-10T13:30:34.166Z,30.20
2019-06-10T13:32:10.079Z,30.50
2019-06-10T13:33:46.633Z,30.40
2019-06-10T13:35:24.033Z,30.50
2019-06-10T13:37:03.412Z,30.10
2019-06-10T13:38:39.730Z,30.10
2019-06-10T13:40:18.640Z,30.30
2019-06-10T13:41:56.028Z,30.50
2019-06-10T13:43:34.028Z,30.30
2019-06-10T13:45:12.788Z,30.40
2019-06-10T13:46:49.333Z,30.40
2019-06-10T13:48:27.216Z,30.30
2019-06-10T13:50:08.150Z,30.30
2019-06-10T13:51:45.170Z,30.20
2019-06-10T13:53:21.821Z,29.90
2019-06-10T13:54:59.068Z,30.00
2019-06-10T13:56:46.155Z,29.60
2019-06-10T13:58:14.834Z,29.50
2019-06-10T13:59:52.005Z,29.80
2019-06-10T14:01:29.503Z,29.90
2019-06-10T14:03:11.262Z,30.00
2019-06-10T14:04:45.794Z,30.20
2019-06-10T14:06:37.663Z,30.30
2019-06-10T14:08:05.419Z,29.90
2019-06-10T14:09:40.566Z,29.80
2019-06-10T14:11:19.058Z,29.80
2019-06-10T14:12:55.981Z,29.60
2019-06-10T14:14:33.403Z,29.60
2019-06-10T14:16:12.739Z,29.70
2019-06-10T14:17:49.984Z,29.20
2019-06-10T14:19:26.624Z,29.40
2019-06-10T14:21:07.897Z,29.60
2019-06-10T14:22:43.335Z,29.40
2019-06-10T14:24:22.776Z,29.30
2019-06-10T14:25:59.013Z,29.00
2019-06-10T14:27:36.288Z,29.10
2019-06-10T14:29:15.838Z,28.80
2019-06-10T14:30:53.840Z,28.90
2019-06-10T14:32:30.229Z,28.70
2019-06-10T14:34:09.651Z,28.60
2019-06-10T14:35:46.168Z,28.60
2019-06-10T14:37:35.108Z,28.70
2019-06-10T14:39:02.081Z,28.90
2019-06-10T14:40:39.514Z,29.00
2019-06-10T14:42:16.317Z,29.10
2019-06-10T14:43:53.775Z,29.30
2019-06-10T14:45:32.620Z,29.30
2019-06-10T14:47:13.548Z,29.30
2019-06-10T14:48:49.279Z,29.50
2019-06-10T14:50:26.807Z,29.60
2019-06-10T14:52:04.858Z,29.50
2019-06-10T14:53:42.808Z,29.10
2019-06-10T14:55:19.512Z,29.40
2019-06-10T14:56:57.466Z,29.60
2019-06-10T14:58:34.020Z,29.60
2019-06-10T15:00:16.269Z,29.60
2019-06-10T15:01:52.112Z,29.40
2019-06-10T15:03:32.679Z,28.90
2019-06-10T15:05:09.277Z,28.90
2019-06-10T15:06:46.629Z,28.60
2019-06-10T15:08:23.336Z,28.80
2019-06-10T15:10:03.305Z,28.80
2019-06-10T15:11:39.813Z,29.00
2019-06-10T15:13:17.230Z,28.90
2019-06-10T15:14:53.879Z,29.00
2019-06-10T15:16:33.454Z,29.00
2019-06-10T15:18:11.452Z,28.80
2019-06-10T15:19:49.312Z,28.90
2019-06-10T15:21:25.977Z,29.10
2019-06-10T15:23:03.332Z,29.20
2019-06-10T15:24:42.608Z,29.20
2019-06-10T15:26:18.793Z,29.10
2019-06-10T15:27:55.342Z,29.10
2019-06-10T15:29:33.191Z,29.20
2019-06-10T15:31:10.910Z,29.10
2019-06-10T15:32:48.747Z,29.30
2019-06-10T15:34:25.399Z,29.40
2019-06-10T15:36:03.130Z,29.40
2019-06-10T15:37:39.715Z,29.50
2019-06-10T15:39:19.630Z,29.50
2019-06-10T15:40:55.302Z,29.50
2019-06-10T15:42:33.280Z,29.30
2019-06-10T15:44:09.875Z,29.10
2019-06-10T15:45:47.303Z,29.00
2019-06-10T15:47:26.242Z,28.90
2019-06-10T15:49:02.796Z,29.10
2019-06-10T15:50:39.501Z,28.90
2019-06-10T15:52:18.770Z,28.70
2019-06-10T15:53:56.039Z,28.70
2019-06-10T15:56:08.457Z,28.50
2019-06-10T15:57:26.497Z,28.50
2019-06-10T15:58:52.160Z,28.40
2019-06-10T16:00:29.529Z,28.40
2019-06-10T16:02:07.704Z,28.40
2019-06-10T16:03:44.809Z,28.50
2019-06-10T16:05:25.214Z,28.60
2019-06-10T16:07:02.538Z,28.60
2019-06-10T16:08:40.164Z,28.50
2019-06-10T16:10:27.634Z,28.50
2019-06-10T16:12:03.014Z,28.50
2019-06-10T16:13:39.663Z,28.40
2019-06-10T16:15:18.193Z,28.40
2019-06-10T16:16:55.271Z,28.50
2019-06-10T16:18:33.082Z,28.60
2019-06-10T16:20:13.057Z,28.70
2019-06-10T16:21:52.498Z,28.60
2019-06-10T16:23:28.739Z,28.60
2019-06-10T16:25:08.066Z,28.40
2019-06-10T16:26:44.674Z,28.50
2019-06-10T16:28:24.539Z,28.40
2019-06-10T16:30:02.601Z,28.30
2019-06-10T16:31:39.435Z,28.30
2019-06-10T16:33:16.545Z,28.30
2019-06-10T16:34:53.908Z,28.20
2019-06-10T16:36:32.081Z,28.20
2019-06-10T16:38:09.515Z,28.20
2019-06-10T16:39:48.583Z,28.10
2019-06-10T16:41:27.903Z,28.10
2019-06-10T16:43:04.257Z,27.90
2019-06-10T16:44:42.470Z,27.80
2019-06-10T16:46:20.085Z,27.80
2019-06-10T16:47:57.882Z,27.80
2019-06-10T16:49:34.631Z,27.70
2019-06-10T16:51:13.462Z,27.80
2019-06-10T16:52:50.132Z,27.70
2019-06-10T16:54:27.689Z,27.70
2019-06-10T16:56:05.250Z,27.60
2019-06-10T16:57:42.713Z,27.50
2019-06-10T16:59:19.843Z,27.50
2019-06-10T17:00:57.178Z,27.50
2019-06-10T17:02:33.782Z,27.50
2019-06-10T17:04:12.454Z,27.60
2019-06-10T17:05:49.386Z,27.40
2019-06-10T17:07:26.977Z,27.40
2019-06-10T17:09:04.685Z,27.30
2019-06-10T17:10:43.618Z,27.20
2019-06-10T17:12:24.848Z,27.30
2019-06-10T17:14:03.084Z,27.20
2019-06-10T17:15:42.230Z,27.20
2019-06-10T17:17:20.490Z,27.00
2019-06-10T17:18:57.112Z,27.00
2019-06-10T17:20:34.520Z,27.00
2019-06-10T17:22:12.639Z,27.00
2019-06-10T17:23:52.475Z,26.90
2019-06-10T17:25:29.694Z,26.90
2019-06-10T17:27:07.233Z,26.80
2019-06-10T17:28:44.737Z,26.80
2019-06-10T17:30:23.929Z,27.00
2019-06-10T17:32:02.826Z,26.80
2019-06-10T17:33:42.452Z,26.70
2019-06-10T17:35:17.909Z,26.60
2019-06-10T17:36:55.305Z,26.60
2019-06-10T17:38:31.859Z,26.60
2019-06-10T17:40:09.966Z,26.50
2019-06-10T17:41:46.511Z,26.60
2019-06-10T17:43:25.060Z,26.50
2019-06-10T17:45:02.518Z,26.40
2019-06-10T17:46:42.460Z,26.40
2019-06-10T17:48:18.230Z,26.30
2019-06-10T17:49:55.458Z,26.30
2019-06-10T17:51:35.539Z,26.40
2019-06-10T17:53:12.690Z,26.20
2019-06-10T17:54:52.202Z,26.20
2019-06-10T17:56:30.789Z,26.20
2019-06-10T17:58:07.927Z,26.10
2019-06-10T17:59:45.320Z,26.20
2019-06-10T18:01:23.600Z,26.10
2019-06-10T18:03:03.655Z,26.00
2019-06-10T18:04:42.039Z,26.10
2019-06-10T18:06:19.119Z,26.10
2019-06-10T18:07:55.647Z,26.00
2019-06-10T18:09:36.677Z,25.90
2019-06-10T18:11:12.768Z,25.90
2019-06-10T18:12:52.626Z,25.80
2019-06-10T18:14:30.141Z,25.70
2019-06-10T18:16:08.339Z,25.60
2019-06-10T18:17:46.070Z,25.60
2019-06-10T18:19:24.317Z,25.50
2019-06-10T18:21:03.370Z,25.40
2019-06-10T18:22:40.581Z,25.40
2019-06-10T18:24:20.578Z,25.40
2019-06-10T18:25:56.082Z,25.50
2019-06-10T18:27:34.076Z,25.40
2019-06-10T18:29:12.989Z,25.40
2019-06-10T18:30:52.811Z,25.30
2019-06-10T18:32:29.791Z,25.10
2019-06-10T18:34:07.163Z,25.30
2019-06-10T18:35:44.569Z,25.20
2019-06-10T18:37:22.782Z,25.20
2019-06-10T18:39:02.839Z,25.10
2019-06-10T18:40:39.867Z,25.00
2019-06-10T18:42:17.854Z,25.00
2019-06-10T18:43:54.489Z,25.10
2019-06-10T18:45:35.085Z,24.90
2019-06-10T18:47:13.253Z,24.80
2019-06-10T18:48:49.553Z,24.80
2019-06-10T18:50:28.265Z,24.70
2019-06-10T18:52:05.757Z,24.70
2019-06-10T18:53:44.020Z,24.60
2019-06-10T18:55:22.668Z,24.60
2019-06-10T18:56:59.297Z,24.60
2019-06-10T18:58:37.836Z,24.50
2019-06-10T19:00:17.343Z,24.60
2019-06-10T19:01:54.675Z,24.50
2019-06-10T19:03:34.696Z,24.50
2019-06-10T19:05:13.396Z,24.50
2019-06-10T19:06:52.754Z,24.50
2019-06-10T19:08:29.060Z,24.50
2019-06-10T19:10:09.794Z,24.40
2019-06-10T19:11:46.403Z,24.30
2019-06-10T19:13:23.819Z,24.40
2019-06-10T19:15:04.633Z,24.30
2019-06-10T19:16:42.974Z,24.30
2019-06-10T19:18:19.801Z,24.10
2019-06-10T19:19:56.571Z,24.10
2019-06-10T19:21:34.223Z,24.10
2019-06-10T19:23:14.465Z,24.00
2019-06-10T19:24:52.804Z,24.00
2019-06-10T19:26:31.009Z,23.90
2019-06-10T19:28:07.836Z,23.80
2019-06-10T19:29:50.736Z,23.80
2019-06-10T19:31:23.399Z,23.80
2019-06-10T19:33:02.515Z,23.70
2019-06-10T19:34:39.452Z,23.70
2019-06-10T19:36:17.607Z,23.70
2019-06-10T19:37:54.264Z,23.70
2019-06-10T19:39:36.380Z,23.80
2019-06-10T19:41:10.014Z,23.70
2019-06-10T19:42:47.462Z,23.60
2019-06-10T19:44:25.537Z,23.60
2019-06-10T19:46:05.829Z,23.60
2019-06-10T19:47:44.093Z,23.50
2019-06-10T19:49:20.388Z,23.60
2019-06-10T19:50:56.933Z,23.50
2019-06-10T19:52:35.231Z,23.40
2019-06-10T19:54:12.744Z,23.40
2019-06-10T19:55:50.418Z,23.40
2019-06-10T19:57:27.129Z,23.50
2019-06-10T19:59:05.740Z,23.40
2019-06-10T20:00:48.772Z,23.40
2019-06-10T20:02:22.484Z,23.40
2019-06-10T20:03:59.241Z,23.30
2019-06-10T20:05:38.068Z,23.40
2019-06-10T20:07:14.751Z,23.30
2019-06-10T20:08:52.342Z,23.10
2019-06-10T20:10:29.121Z,23.20
2019-06-10T20:12:06.594Z,23.20
2019-06-10T20:13:45.374Z,23.20
2019-06-10T20:15:27.876Z,23.30
2019-06-10T20:17:05.394Z,23.20
2019-06-10T20:18:45.284Z,23.30
2019-06-10T20:20:22.651Z,23.20
2019-06-10T20:21:59.278Z,23.30
2019-06-10T20:23:37.378Z,23.30
2019-06-10T20:25:14.672Z,23.30
2019-06-10T20:26:59.275Z,23.30
2019-06-10T20:28:36.623Z,23.30
2019-06-10T20:30:24.299Z,23.30
2019-06-10T20:31:53.369Z,23.20
2019-06-10T20:33:36.211Z,23.20
2019-06-10T20:37:08.380Z,23.20
2019-06-10T20:38:48.888Z,23.00
2019-06-10T20:40:25.662Z,23.10
2019-06-10T20:42:03.028Z,23.00
2019-06-10T20:43:39.677Z,23.00
2019-06-10T20:45:17.463Z,23.00
2019-06-10T20:46:54.698Z,23.00
2019-06-10T20:48:33.294Z,23.00
2019-06-10T20:50:13.099Z,22.90
2019-06-10T20:52:07.149Z,22.90
2019-06-10T20:53:28.861Z,23.00
2019-06-10T20:55:08.608Z,23.00
2019-06-10T20:56:48.355Z,22.90
2019-06-10T20:58:24.347Z,22.90
2019-06-10T21:00:01.109Z,22.90
2019-06-10T21:01:39.105Z,22.80
2019-06-10T21:03:15.811Z,22.80
2019-06-10T21:04:54.306Z,22.80
2019-06-10T21:06:33.041Z,22.80
2019-06-10T21:08:13.326Z,22.70